sensor_id;sensor_type;location;lat;lon;timestamp;temperature;humidity
14604;DHT22;7388;51.078;13.740;2022-08-19T00:01:10;26.70;47.80
14604;DHT22;7388;51.078;13.740;2022-08-19T00:03:37;26.70;47.90
14604;DHT22;7388;51.078;13.740;2022-08-19T00:06:03;26.60;47.90
14604;DHT22;7388;51.078;13.740;2022-08-19T00:08:29;26.60;48.00
14604;DHT22;7388;51.078;13.740;2022-08-19T00:10:54;26.60;48.00
14604;DHT22;7388;51.078;13.740;2022-08-19T00:13:20;26.60;48.10
14604;DHT22;7388;51.078;13.740;2022-08-19T00:15:46;26.60;48.10
14604;DHT22;7388;51.078;13.740;2022-08-19T00:18:11;26.60;48.10
14604;DHT22;7388;51.078;13.740;2022-08-19T00:20:37;26.60;48.10
14604;DHT22;7388;51.078;13.740;2022-08-19T00:23:06;26.50;47.50
14604;DHT22;7388;51.078;13.740;2022-08-19T00:25:33;26.60;48.20
14604;DHT22;7388;51.078;13.740;2022-08-19T00:27:59;26.50;48.20
14604;DHT22;7388;51.078;13.740;2022-08-19T00:30:25;26.50;48.40
14604;DHT22;7388;51.078;13.740;2022-08-19T00:32:53;26.50;48.50
14604;DHT22;7388;51.078;13.740;2022-08-19T00:35:21;26.50;48.70
14604;DHT22;7388;51.078;13.740;2022-08-19T00:37:48;26.40;48.70
14604;DHT22;7388;51.078;13.740;2022-08-19T00:40:15;26.40;48.80
14604;DHT22;7388;51.078;13.740;2022-08-19T00:42:41;26.40;48.80
14604;DHT22;7388;51.078;13.740;2022-08-19T00:45:13;26.40;48.80
14604;DHT22;7388;51.078;13.740;2022-08-19T00:47:39;26.40;49.00
14604;DHT22;7388;51.078;13.740;2022-08-19T00:50:05;26.40;49.10
14604;DHT22;7388;51.078;13.740;2022-08-19T00:52:36;26.40;49.30
14604;DHT22;7388;51.078;13.740;2022-08-19T00:55:05;26.40;49.30
14604;DHT22;7388;51.078;13.740;2022-08-19T00:57:38;26.30;49.30
14604;DHT22;7388;51.078;13.740;2022-08-19T01:00:08;26.40;49.30
14604;DHT22;7388;51.078;13.740;2022-08-19T01:02:37;26.40;49.30
14604;DHT22;7388;51.078;13.740;2022-08-19T01:05:09;26.30;49.30
14604;DHT22;7388;51.078;13.740;2022-08-19T01:07:38;26.30;49.50
14604;DHT22;7388;51.078;13.740;2022-08-19T01:10:09;26.30;49.60
14604;DHT22;7388;51.078;13.740;2022-08-19T01:12:35;26.30;49.70
14604;DHT22;7388;51.078;13.740;2022-08-19T01:15:03;26.30;49.90
14604;DHT22;7388;51.078;13.740;2022-08-19T01:17:29;26.30;49.90
14604;DHT22;7388;51.078;13.740;2022-08-19T01:19:55;26.30;49.90
14604;DHT22;7388;51.078;13.740;2022-08-19T01:24:51;26.30;49.90
14604;DHT22;7388;51.078;13.740;2022-08-19T01:27:17;26.30;50.20
14604;DHT22;7388;51.078;13.740;2022-08-19T01:29:44;26.30;50.10
14604;DHT22;7388;51.078;13.740;2022-08-19T01:32:13;26.30;50.00
14604;DHT22;7388;51.078;13.740;2022-08-19T01:34:40;26.30;50.10
14604;DHT22;7388;51.078;13.740;2022-08-19T01:37:08;26.30;50.10
14604;DHT22;7388;51.078;13.740;2022-08-19T01:39:37;26.30;50.00
14604;DHT22;7388;51.078;13.740;2022-08-19T01:42:03;26.30;50.60
14604;DHT22;7388;51.078;13.740;2022-08-19T01:44:30;26.30;49.90
14604;DHT22;7388;51.078;13.740;2022-08-19T01:46:56;26.30;49.90
14604;DHT22;7388;51.078;13.740;2022-08-19T01:49:24;26.30;50.00
14604;DHT22;7388;51.078;13.740;2022-08-19T01:51:51;26.30;50.00
14604;DHT22;7388;51.078;13.740;2022-08-19T01:54:18;26.30;50.00
14604;DHT22;7388;51.078;13.740;2022-08-19T01:56:44;26.40;50.20
14604;DHT22;7388;51.078;13.740;2022-08-19T01:59:14;26.30;50.10
14604;DHT22;7388;51.078;13.740;2022-08-19T02:01:42;26.30;50.40
14604;DHT22;7388;51.078;13.740;2022-08-19T02:04:08;26.20;50.40
14604;DHT22;7388;51.078;13.740;2022-08-19T02:06:34;26.20;50.50
14604;DHT22;7388;51.078;13.740;2022-08-19T02:09:00;26.30;50.40
14604;DHT22;7388;51.078;13.740;2022-08-19T02:11:31;26.30;50.40
14604;DHT22;7388;51.078;13.740;2022-08-19T02:14:00;26.30;50.40
14604;DHT22;7388;51.078;13.740;2022-08-19T02:16:27;26.30;50.30
14604;DHT22;7388;51.078;13.740;2022-08-19T02:18:54;26.40;50.30
14604;DHT22;7388;51.078;13.740;2022-08-19T02:21:22;26.30;50.30
14604;DHT22;7388;51.078;13.740;2022-08-19T02:23:49;26.20;50.60
14604;DHT22;7388;51.078;13.740;2022-08-19T02:26:16;26.20;50.80
14604;DHT22;7388;51.078;13.740;2022-08-19T02:28:43;26.20;51.00
14604;DHT22;7388;51.078;13.740;2022-08-19T02:31:13;26.20;51.00
14604;DHT22;7388;51.078;13.740;2022-08-19T02:33:43;26.20;51.00
14604;DHT22;7388;51.078;13.740;2022-08-19T02:36:10;26.20;50.90
14604;DHT22;7388;51.078;13.740;2022-08-19T02:38:36;26.20;51.10
14604;DHT22;7388;51.078;13.740;2022-08-19T02:41:16;26.20;51.00
14604;DHT22;7388;51.078;13.740;2022-08-19T02:43:43;26.20;50.90
14604;DHT22;7388;51.078;13.740;2022-08-19T02:46:34;26.20;50.80
14604;DHT22;7388;51.078;13.740;2022-08-19T02:49:06;26.20;50.90
14604;DHT22;7388;51.078;13.740;2022-08-19T02:51:35;26.20;50.90
14604;DHT22;7388;51.078;13.740;2022-08-19T02:54:02;26.20;50.90
14604;DHT22;7388;51.078;13.740;2022-08-19T02:56:29;26.20;50.90
14604;DHT22;7388;51.078;13.740;2022-08-19T02:58:57;26.20;51.20
14604;DHT22;7388;51.078;13.740;2022-08-19T03:01:31;26.20;51.00
14604;DHT22;7388;51.078;13.740;2022-08-19T03:04:00;26.20;50.90
14604;DHT22;7388;51.078;13.740;2022-08-19T03:06:26;26.30;50.90
14604;DHT22;7388;51.078;13.740;2022-08-19T03:08:53;26.30;50.80
14604;DHT22;7388;51.078;13.740;2022-08-19T03:11:28;26.30;50.90
14604;DHT22;7388;51.078;13.740;2022-08-19T03:13:55;26.30;50.80
14604;DHT22;7388;51.078;13.740;2022-08-19T03:16:23;26.30;50.90
14604;DHT22;7388;51.078;13.740;2022-08-19T03:18:50;26.30;50.80
14604;DHT22;7388;51.078;13.740;2022-08-19T03:21:21;26.30;50.90
14604;DHT22;7388;51.078;13.740;2022-08-19T03:23:49;26.30;50.70
14604;DHT22;7388;51.078;13.740;2022-08-19T03:26:16;26.30;50.90
14604;DHT22;7388;51.078;13.740;2022-08-19T03:28:43;26.30;50.80
14604;DHT22;7388;51.078;13.740;2022-08-19T03:31:13;26.30;50.90
14604;DHT22;7388;51.078;13.740;2022-08-19T03:33:39;26.30;50.90
14604;DHT22;7388;51.078;13.740;2022-08-19T03:36:09;26.30;50.70
14604;DHT22;7388;51.078;13.740;2022-08-19T03:38:42;26.30;50.80
14604;DHT22;7388;51.078;13.740;2022-08-19T03:41:12;26.30;50.70
14604;DHT22;7388;51.078;13.740;2022-08-19T03:43:39;26.30;50.80
14604;DHT22;7388;51.078;13.740;2022-08-19T03:46:11;26.30;50.80
14604;DHT22;7388;51.078;13.740;2022-08-19T03:48:38;26.30;50.80
14604;DHT22;7388;51.078;13.740;2022-08-19T03:51:06;26.30;50.70
14604;DHT22;7388;51.078;13.740;2022-08-19T03:53:34;26.30;50.80
14604;DHT22;7388;51.078;13.740;2022-08-19T03:56:00;26.30;50.70
14604;DHT22;7388;51.078;13.740;2022-08-19T03:58:28;26.30;50.70
14604;DHT22;7388;51.078;13.740;2022-08-19T04:00:56;26.30;50.80
14604;DHT22;7388;51.078;13.740;2022-08-19T04:03:23;26.30;50.90
14604;DHT22;7388;51.078;13.740;2022-08-19T04:05:49;26.30;50.80
14604;DHT22;7388;51.078;13.740;2022-08-19T04:08:15;26.30;50.80
14604;DHT22;7388;51.078;13.740;2022-08-19T04:10:44;26.30;50.80
14604;DHT22;7388;51.078;13.740;2022-08-19T04:13:10;26.30;50.60
14604;DHT22;7388;51.078;13.740;2022-08-19T04:15:41;26.30;50.60
14604;DHT22;7388;51.078;13.740;2022-08-19T04:18:10;26.40;50.60
14604;DHT22;7388;51.078;13.740;2022-08-19T04:20:41;26.40;50.40
14604;DHT22;7388;51.078;13.740;2022-08-19T04:23:07;26.30;50.50
14604;DHT22;7388;51.078;13.740;2022-08-19T04:25:41;26.30;50.60
14604;DHT22;7388;51.078;13.740;2022-08-19T04:28:09;26.30;50.60
14604;DHT22;7388;51.078;13.740;2022-08-19T04:30:40;26.30;50.70
14604;DHT22;7388;51.078;13.740;2022-08-19T04:33:06;26.30;50.60
14604;DHT22;7388;51.078;13.740;2022-08-19T04:35:40;26.30;50.60
14604;DHT22;7388;51.078;13.740;2022-08-19T04:38:07;26.40;50.90
14604;DHT22;7388;51.078;13.740;2022-08-19T04:40:34;26.30;50.80
14604;DHT22;7388;51.078;13.740;2022-08-19T04:43:18;26.30;50.70
14604;DHT22;7388;51.078;13.740;2022-08-19T04:45:45;26.30;50.90
14604;DHT22;7388;51.078;13.740;2022-08-19T04:48:11;26.30;50.90
14604;DHT22;7388;51.078;13.740;2022-08-19T04:50:40;26.30;50.90
14604;DHT22;7388;51.078;13.740;2022-08-19T04:53:07;26.30;50.90
14604;DHT22;7388;51.078;13.740;2022-08-19T04:55:33;26.30;50.90
14604;DHT22;7388;51.078;13.740;2022-08-19T04:57:59;26.30;50.90
14604;DHT22;7388;51.078;13.740;2022-08-19T05:00:26;26.30;50.90
14604;DHT22;7388;51.078;13.740;2022-08-19T05:02:51;26.30;51.00
14604;DHT22;7388;51.078;13.740;2022-08-19T05:05:17;26.30;50.90
14604;DHT22;7388;51.078;13.740;2022-08-19T05:07:43;26.30;50.90
14604;DHT22;7388;51.078;13.740;2022-08-19T05:10:09;26.20;51.00
14604;DHT22;7388;51.078;13.740;2022-08-19T05:12:35;26.20;51.10
14604;DHT22;7388;51.078;13.740;2022-08-19T05:15:03;26.20;51.00
14604;DHT22;7388;51.078;13.740;2022-08-19T05:17:29;26.20;51.00
14604;DHT22;7388;51.078;13.740;2022-08-19T05:19:55;26.20;51.00
14604;DHT22;7388;51.078;13.740;2022-08-19T05:22:40;26.20;51.00
14604;DHT22;7388;51.078;13.740;2022-08-19T05:25:12;26.10;51.20
14604;DHT22;7388;51.078;13.740;2022-08-19T05:27:39;26.20;51.20
14604;DHT22;7388;51.078;13.740;2022-08-19T05:30:05;26.20;51.20
14604;DHT22;7388;51.078;13.740;2022-08-19T05:32:31;26.20;51.20
14604;DHT22;7388;51.078;13.740;2022-08-19T05:34:57;26.20;51.00
14604;DHT22;7388;51.078;13.740;2022-08-19T05:37:23;26.20;51.00
14604;DHT22;7388;51.078;13.740;2022-08-19T05:39:52;26.20;51.00
14604;DHT22;7388;51.078;13.740;2022-08-19T05:42:18;26.20;51.10
14604;DHT22;7388;51.078;13.740;2022-08-19T05:44:45;26.20;51.10
14604;DHT22;7388;51.078;13.740;2022-08-19T05:47:13;26.10;51.30
14604;DHT22;7388;51.078;13.740;2022-08-19T05:49:40;26.10;51.20
14604;DHT22;7388;51.078;13.740;2022-08-19T05:52:09;26.10;51.30
14604;DHT22;7388;51.078;13.740;2022-08-19T05:54:38;26.10;51.40
14604;DHT22;7388;51.078;13.740;2022-08-19T05:57:06;26.10;51.30
14604;DHT22;7388;51.078;13.740;2022-08-19T05:59:32;26.10;51.40
14604;DHT22;7388;51.078;13.740;2022-08-19T06:01:59;26.00;51.50
14604;DHT22;7388;51.078;13.740;2022-08-19T06:04:26;26.00;51.40
14604;DHT22;7388;51.078;13.740;2022-08-19T06:06:52;26.00;51.50
14604;DHT22;7388;51.078;13.740;2022-08-19T06:09:20;26.00;51.60
14604;DHT22;7388;51.078;13.740;2022-08-19T06:11:51;25.90;51.20
14604;DHT22;7388;51.078;13.740;2022-08-19T06:14:21;25.90;51.00
14604;DHT22;7388;51.078;13.740;2022-08-19T06:16:48;25.90;51.20
14604;DHT22;7388;51.078;13.740;2022-08-19T06:19:19;25.90;51.10
14604;DHT22;7388;51.078;13.740;2022-08-19T06:21:46;25.90;51.10
14604;DHT22;7388;51.078;13.740;2022-08-19T06:24:15;25.90;51.00
14604;DHT22;7388;51.078;13.740;2022-08-19T06:26:43;25.90;51.10
14604;DHT22;7388;51.078;13.740;2022-08-19T06:29:12;25.90;50.90
14604;DHT22;7388;51.078;13.740;2022-08-19T06:31:45;25.90;50.80
14604;DHT22;7388;51.078;13.740;2022-08-19T06:34:12;26.00;51.30
14604;DHT22;7388;51.078;13.740;2022-08-19T06:36:41;26.00;51.40
14604;DHT22;7388;51.078;13.740;2022-08-19T06:39:15;26.00;51.30
14604;DHT22;7388;51.078;13.740;2022-08-19T06:41:43;26.00;51.60
14604;DHT22;7388;51.078;13.740;2022-08-19T06:44:10;25.90;51.00
14604;DHT22;7388;51.078;13.740;2022-08-19T06:46:37;25.90;51.00
14604;DHT22;7388;51.078;13.740;2022-08-19T06:49:03;25.90;51.20
14604;DHT22;7388;51.078;13.740;2022-08-19T06:51:30;25.90;51.80
14604;DHT22;7388;51.078;13.740;2022-08-19T06:53:58;26.00;51.70
14604;DHT22;7388;51.078;13.740;2022-08-19T06:56:27;25.90;51.30
14604;DHT22;7388;51.078;13.740;2022-08-19T06:59:22;26.00;52.00
14604;DHT22;7388;51.078;13.740;2022-08-19T07:01:53;25.90;51.70
14604;DHT22;7388;51.078;13.740;2022-08-19T07:04:22;25.90;51.80
14604;DHT22;7388;51.078;13.740;2022-08-19T07:06:50;25.90;51.90
14604;DHT22;7388;51.078;13.740;2022-08-19T07:09:18;25.90;52.00
14604;DHT22;7388;51.078;13.740;2022-08-19T07:11:46;25.90;52.40
14604;DHT22;7388;51.078;13.740;2022-08-19T07:14:13;25.90;52.10
14604;DHT22;7388;51.078;13.740;2022-08-19T07:16:40;25.90;52.40
14604;DHT22;7388;51.078;13.740;2022-08-19T07:19:05;25.90;52.40
14604;DHT22;7388;51.078;13.740;2022-08-19T07:21:32;25.90;52.40
14604;DHT22;7388;51.078;13.740;2022-08-19T07:23:59;25.90;52.50
14604;DHT22;7388;51.078;13.740;2022-08-19T07:26:28;26.00;53.20
14604;DHT22;7388;51.078;13.740;2022-08-19T07:28:55;25.90;52.70
14604;DHT22;7388;51.078;13.740;2022-08-19T07:31:22;26.00;53.40
14604;DHT22;7388;51.078;13.740;2022-08-19T07:33:50;25.90;53.00
14604;DHT22;7388;51.078;13.740;2022-08-19T07:36:19;25.90;53.20
14604;DHT22;7388;51.078;13.740;2022-08-19T07:38:48;25.90;53.60
14604;DHT22;7388;51.078;13.740;2022-08-19T07:41:20;25.80;53.40
14604;DHT22;7388;51.078;13.740;2022-08-19T07:43:48;25.80;53.60
14604;DHT22;7388;51.078;13.740;2022-08-19T07:46:15;25.70;53.80
14604;DHT22;7388;51.078;13.740;2022-08-19T07:48:43;25.60;54.00
14604;DHT22;7388;51.078;13.740;2022-08-19T07:51:14;25.60;54.30
14604;DHT22;7388;51.078;13.740;2022-08-19T07:53:40;25.60;54.30
14604;DHT22;7388;51.078;13.740;2022-08-19T07:56:07;25.60;54.70
14604;DHT22;7388;51.078;13.740;2022-08-19T07:58:36;25.60;54.70
14604;DHT22;7388;51.078;13.740;2022-08-19T08:01:05;25.60;54.70
14604;DHT22;7388;51.078;13.740;2022-08-19T08:03:31;25.60;54.40
14604;DHT22;7388;51.078;13.740;2022-08-19T08:06:16;25.60;54.60
14604;DHT22;7388;51.078;13.740;2022-08-19T08:09:02;25.70;54.70
14604;DHT22;7388;51.078;13.740;2022-08-19T08:11:39;25.60;54.90
14604;DHT22;7388;51.078;13.740;2022-08-19T08:14:06;25.60;54.90
14604;DHT22;7388;51.078;13.740;2022-08-19T08:16:38;25.60;54.90
14604;DHT22;7388;51.078;13.740;2022-08-19T08:19:05;25.50;54.90
14604;DHT22;7388;51.078;13.740;2022-08-19T08:21:32;25.50;55.20
14604;DHT22;7388;51.078;13.740;2022-08-19T08:23:58;25.60;55.00
14604;DHT22;7388;51.078;13.740;2022-08-19T08:26:24;25.60;55.10
14604;DHT22;7388;51.078;13.740;2022-08-19T08:28:54;25.60;55.20
14604;DHT22;7388;51.078;13.740;2022-08-19T08:31:20;25.60;55.30
14604;DHT22;7388;51.078;13.740;2022-08-19T08:33:46;25.60;55.20
14604;DHT22;7388;51.078;13.740;2022-08-19T08:36:12;25.60;55.20
14604;DHT22;7388;51.078;13.740;2022-08-19T08:38:40;25.60;55.10
14604;DHT22;7388;51.078;13.740;2022-08-19T08:41:31;25.70;55.10
14604;DHT22;7388;51.078;13.740;2022-08-19T08:44:01;25.80;55.10
14604;DHT22;7388;51.078;13.740;2022-08-19T08:46:39;25.80;55.20
14604;DHT22;7388;51.078;13.740;2022-08-19T08:51:55;25.80;54.90
14604;DHT22;7388;51.078;13.740;2022-08-19T08:54:24;25.80;54.80
14604;DHT22;7388;51.078;13.740;2022-08-19T08:56:53;25.80;54.90
14604;DHT22;7388;51.078;13.740;2022-08-19T08:59:28;25.80;54.70
14604;DHT22;7388;51.078;13.740;2022-08-19T09:01:58;25.90;54.80
14604;DHT22;7388;51.078;13.740;2022-08-19T09:04:24;25.90;54.70
14604;DHT22;7388;51.078;13.740;2022-08-19T09:07:19;25.90;54.70
14604;DHT22;7388;51.078;13.740;2022-08-19T09:09:52;26.00;55.00
14604;DHT22;7388;51.078;13.740;2022-08-19T09:15:08;26.10;54.80
14604;DHT22;7388;51.078;13.740;2022-08-19T09:17:35;26.10;54.60
14604;DHT22;7388;51.078;13.740;2022-08-19T09:22:38;26.20;54.40
14604;DHT22;7388;51.078;13.740;2022-08-19T09:25:07;26.20;54.30
14604;DHT22;7388;51.078;13.740;2022-08-19T09:27:33;26.20;54.10
14604;DHT22;7388;51.078;13.740;2022-08-19T09:30:00;26.30;54.30
14604;DHT22;7388;51.078;13.740;2022-08-19T09:32:27;26.30;54.30
14604;DHT22;7388;51.078;13.740;2022-08-19T09:34:53;26.40;54.30
14604;DHT22;7388;51.078;13.740;2022-08-19T09:37:24;26.50;54.00
14604;DHT22;7388;51.078;13.740;2022-08-19T09:39:51;26.50;53.70
14604;DHT22;7388;51.078;13.740;2022-08-19T09:42:16;26.60;53.80
14604;DHT22;7388;51.078;13.740;2022-08-19T09:44:43;26.60;53.50
14604;DHT22;7388;51.078;13.740;2022-08-19T09:47:10;26.60;53.10
14604;DHT22;7388;51.078;13.740;2022-08-19T09:49:37;26.60;53.00
14604;DHT22;7388;51.078;13.740;2022-08-19T09:52:04;26.70;53.00
14604;DHT22;7388;51.078;13.740;2022-08-19T09:54:31;26.70;53.10
14604;DHT22;7388;51.078;13.740;2022-08-19T09:56:58;26.80;53.00
14604;DHT22;7388;51.078;13.740;2022-08-19T09:59:26;26.80;52.60
14604;DHT22;7388;51.078;13.740;2022-08-19T10:01:52;26.80;52.30
14604;DHT22;7388;51.078;13.740;2022-08-19T10:04:18;26.70;52.40
14604;DHT22;7388;51.078;13.740;2022-08-19T10:06:45;26.70;52.40
14604;DHT22;7388;51.078;13.740;2022-08-19T10:09:14;26.80;52.20
14604;DHT22;7388;51.078;13.740;2022-08-19T10:11:42;26.70;52.10
14604;DHT22;7388;51.078;13.740;2022-08-19T10:14:09;26.80;52.20
14604;DHT22;7388;51.078;13.740;2022-08-19T10:16:36;26.80;52.30
14604;DHT22;7388;51.078;13.740;2022-08-19T10:19:02;26.80;51.90
14604;DHT22;7388;51.078;13.740;2022-08-19T10:21:31;26.80;52.20
14604;DHT22;7388;51.078;13.740;2022-08-19T10:24:00;26.90;52.20
14604;DHT22;7388;51.078;13.740;2022-08-19T10:26:29;27.00;52.80
14604;DHT22;7388;51.078;13.740;2022-08-19T10:28:56;27.00;52.30
14604;DHT22;7388;51.078;13.740;2022-08-19T10:31:25;27.10;52.20
14604;DHT22;7388;51.078;13.740;2022-08-19T10:33:52;27.10;52.00
14604;DHT22;7388;51.078;13.740;2022-08-19T10:36:32;27.10;51.30
14604;DHT22;7388;51.078;13.740;2022-08-19T10:39:06;27.10;51.70
14604;DHT22;7388;51.078;13.740;2022-08-19T10:41:34;27.20;51.70
14604;DHT22;7388;51.078;13.740;2022-08-19T10:44:04;27.30;51.90
14604;DHT22;7388;51.078;13.740;2022-08-19T10:46:31;27.40;51.50
14604;DHT22;7388;51.078;13.740;2022-08-19T10:48:59;27.50;51.30
14604;DHT22;7388;51.078;13.740;2022-08-19T10:51:25;27.60;50.80
14604;DHT22;7388;51.078;13.740;2022-08-19T10:54:09;27.80;50.50
14604;DHT22;7388;51.078;13.740;2022-08-19T10:56:35;27.90;50.80
14604;DHT22;7388;51.078;13.740;2022-08-19T10:59:21;28.00;50.70
14604;DHT22;7388;51.078;13.740;2022-08-19T11:01:48;28.10;50.20
14604;DHT22;7388;51.078;13.740;2022-08-19T11:04:15;28.10;49.50
14604;DHT22;7388;51.078;13.740;2022-08-19T11:06:46;28.00;49.10
14604;DHT22;7388;51.078;13.740;2022-08-19T11:09:15;28.10;49.30
14604;DHT22;7388;51.078;13.740;2022-08-19T11:11:42;28.10;49.50
14604;DHT22;7388;51.078;13.740;2022-08-19T11:14:14;28.10;49.10
14604;DHT22;7388;51.078;13.740;2022-08-19T11:16:41;28.10;49.30
14604;DHT22;7388;51.078;13.740;2022-08-19T11:19:09;28.10;49.50
14604;DHT22;7388;51.078;13.740;2022-08-19T11:21:38;28.00;49.50
14604;DHT22;7388;51.078;13.740;2022-08-19T11:24:08;28.00;49.50
14604;DHT22;7388;51.078;13.740;2022-08-19T11:26:35;28.00;49.30
14604;DHT22;7388;51.078;13.740;2022-08-19T11:29:02;28.00;49.30
14604;DHT22;7388;51.078;13.740;2022-08-19T11:31:31;27.90;49.00
14604;DHT22;7388;51.078;13.740;2022-08-19T11:33:58;27.80;49.00
14604;DHT22;7388;51.078;13.740;2022-08-19T11:36:25;27.80;49.20
14604;DHT22;7388;51.078;13.740;2022-08-19T11:38:52;27.90;49.10
14604;DHT22;7388;51.078;13.740;2022-08-19T11:41:20;27.90;49.00
14604;DHT22;7388;51.078;13.740;2022-08-19T11:43:46;27.90;49.10
14604;DHT22;7388;51.078;13.740;2022-08-19T11:46:13;27.90;48.80
14604;DHT22;7388;51.078;13.740;2022-08-19T11:48:40;27.80;48.90
14604;DHT22;7388;51.078;13.740;2022-08-19T11:51:10;27.80;48.80
14604;DHT22;7388;51.078;13.740;2022-08-19T11:53:38;27.90;48.80
14604;DHT22;7388;51.078;13.740;2022-08-19T11:56:07;28.00;49.50
14604;DHT22;7388;51.078;13.740;2022-08-19T11:58:34;28.00;49.40
14604;DHT22;7388;51.078;13.740;2022-08-19T12:01:00;28.10;48.80
14604;DHT22;7388;51.078;13.740;2022-08-19T12:03:26;28.00;48.60
14604;DHT22;7388;51.078;13.740;2022-08-19T12:05:51;28.00;48.50
14604;DHT22;7388;51.078;13.740;2022-08-19T12:08:17;27.90;48.20
14604;DHT22;7388;51.078;13.740;2022-08-19T12:10:43;27.80;48.30
14604;DHT22;7388;51.078;13.740;2022-08-19T12:13:11;27.80;48.60
14604;DHT22;7388;51.078;13.740;2022-08-19T12:15:40;27.70;48.70
14604;DHT22;7388;51.078;13.740;2022-08-19T12:18:08;27.70;48.80
14604;DHT22;7388;51.078;13.740;2022-08-19T12:20:38;27.70;49.10
14604;DHT22;7388;51.078;13.740;2022-08-19T12:23:05;27.70;49.10
14604;DHT22;7388;51.078;13.740;2022-08-19T12:25:32;27.70;49.20
14604;DHT22;7388;51.078;13.740;2022-08-19T12:27:58;27.70;49.10
14604;DHT22;7388;51.078;13.740;2022-08-19T12:30:24;27.70;49.10
14604;DHT22;7388;51.078;13.740;2022-08-19T12:32:51;27.70;49.10
14604;DHT22;7388;51.078;13.740;2022-08-19T12:35:17;27.80;49.20
14604;DHT22;7388;51.078;13.740;2022-08-19T12:37:46;27.80;49.30
14604;DHT22;7388;51.078;13.740;2022-08-19T12:40:13;27.80;49.00
14604;DHT22;7388;51.078;13.740;2022-08-19T12:42:40;27.80;49.10
14604;DHT22;7388;51.078;13.740;2022-08-19T12:45:10;27.80;48.90
14604;DHT22;7388;51.078;13.740;2022-08-19T12:47:37;27.80;48.90
14604;DHT22;7388;51.078;13.740;2022-08-19T12:50:03;27.70;48.60
14604;DHT22;7388;51.078;13.740;2022-08-19T12:52:35;27.70;48.70
14604;DHT22;7388;51.078;13.740;2022-08-19T12:55:07;27.60;48.40
14604;DHT22;7388;51.078;13.740;2022-08-19T12:57:34;27.60;48.60
14604;DHT22;7388;51.078;13.740;2022-08-19T13:00:08;27.60;48.20
14604;DHT22;7388;51.078;13.740;2022-08-19T13:02:38;27.60;48.10
14604;DHT22;7388;51.078;13.740;2022-08-19T13:05:05;27.60;48.50
14604;DHT22;7388;51.078;13.740;2022-08-19T13:07:32;27.60;48.40
14604;DHT22;7388;51.078;13.740;2022-08-19T13:09:58;27.60;48.30
14604;DHT22;7388;51.078;13.740;2022-08-19T13:12:24;27.60;48.50
14604;DHT22;7388;51.078;13.740;2022-08-19T13:14:55;27.60;48.40
14604;DHT22;7388;51.078;13.740;2022-08-19T13:17:21;27.60;48.20
14604;DHT22;7388;51.078;13.740;2022-08-19T13:19:47;27.60;48.20
14604;DHT22;7388;51.078;13.740;2022-08-19T13:22:12;27.50;48.00
14604;DHT22;7388;51.078;13.740;2022-08-19T13:24:38;27.50;48.10
14604;DHT22;7388;51.078;13.740;2022-08-19T13:27:04;27.50;48.40
14604;DHT22;7388;51.078;13.740;2022-08-19T13:29:30;27.50;48.40
14604;DHT22;7388;51.078;13.740;2022-08-19T13:32:14;27.40;48.40
14604;DHT22;7388;51.078;13.740;2022-08-19T13:34:59;27.30;48.40
14604;DHT22;7388;51.078;13.740;2022-08-19T13:37:24;27.30;48.50
14604;DHT22;7388;51.078;13.740;2022-08-19T13:40:12;27.30;48.80
14604;DHT22;7388;51.078;13.740;2022-08-19T13:42:41;27.30;49.10
14604;DHT22;7388;51.078;13.740;2022-08-19T13:45:08;27.30;48.90
14604;DHT22;7388;51.078;13.740;2022-08-19T13:47:35;27.30;48.90
14604;DHT22;7388;51.078;13.740;2022-08-19T13:50:04;27.30;48.70
14604;DHT22;7388;51.078;13.740;2022-08-19T13:52:30;27.30;48.80
14604;DHT22;7388;51.078;13.740;2022-08-19T13:54:55;27.30;48.80
14604;DHT22;7388;51.078;13.740;2022-08-19T13:57:22;27.30;48.60
14604;DHT22;7388;51.078;13.740;2022-08-19T13:59:48;27.30;48.80
14604;DHT22;7388;51.078;13.740;2022-08-19T14:02:14;27.30;48.80
14604;DHT22;7388;51.078;13.740;2022-08-19T14:04:40;27.20;48.90
14604;DHT22;7388;51.078;13.740;2022-08-19T14:07:06;27.20;49.00
14604;DHT22;7388;51.078;13.740;2022-08-19T14:09:31;27.20;48.80
14604;DHT22;7388;51.078;13.740;2022-08-19T14:11:57;27.20;49.00
14604;DHT22;7388;51.078;13.740;2022-08-19T14:14:23;27.10;49.10
14604;DHT22;7388;51.078;13.740;2022-08-19T14:16:49;27.10;49.00
14604;DHT22;7388;51.078;13.740;2022-08-19T14:19:15;27.10;48.90
14604;DHT22;7388;51.078;13.740;2022-08-19T14:21:41;27.10;48.90
14604;DHT22;7388;51.078;13.740;2022-08-19T14:24:08;27.10;49.10
14604;DHT22;7388;51.078;13.740;2022-08-19T14:26:33;27.10;49.40
14604;DHT22;7388;51.078;13.740;2022-08-19T14:28:59;27.10;49.00
14604;DHT22;7388;51.078;13.740;2022-08-19T14:31:27;27.10;49.10
14604;DHT22;7388;51.078;13.740;2022-08-19T14:33:53;27.00;49.40
14604;DHT22;7388;51.078;13.740;2022-08-19T14:36:20;27.10;49.30
14604;DHT22;7388;51.078;13.740;2022-08-19T14:38:47;27.10;49.20
14604;DHT22;7388;51.078;13.740;2022-08-19T14:41:17;27.00;49.10
14604;DHT22;7388;51.078;13.740;2022-08-19T14:43:44;27.00;49.00
14604;DHT22;7388;51.078;13.740;2022-08-19T14:46:14;27.00;49.10
14604;DHT22;7388;51.078;13.740;2022-08-19T14:48:41;27.00;49.30
14604;DHT22;7388;51.078;13.740;2022-08-19T14:51:07;27.00;49.20
14604;DHT22;7388;51.078;13.740;2022-08-19T14:53:33;27.00;49.20
14604;DHT22;7388;51.078;13.740;2022-08-19T14:55:59;27.00;49.40
14604;DHT22;7388;51.078;13.740;2022-08-19T14:58:26;27.00;49.30
14604;DHT22;7388;51.078;13.740;2022-08-19T15:00:52;27.00;49.30
14604;DHT22;7388;51.078;13.740;2022-08-19T15:03:18;27.00;49.30
14604;DHT22;7388;51.078;13.740;2022-08-19T15:05:43;27.00;49.20
14604;DHT22;7388;51.078;13.740;2022-08-19T15:08:09;26.90;48.80
14604;DHT22;7388;51.078;13.740;2022-08-19T15:10:37;26.90;48.80
14604;DHT22;7388;51.078;13.740;2022-08-19T15:13:03;26.90;48.90
14604;DHT22;7388;51.078;13.740;2022-08-19T15:15:29;27.00;49.40
14604;DHT22;7388;51.078;13.740;2022-08-19T15:17:54;26.90;48.70
14604;DHT22;7388;51.078;13.740;2022-08-19T15:20:21;26.90;48.80
14604;DHT22;7388;51.078;13.740;2022-08-19T15:22:48;26.80;49.00
14604;DHT22;7388;51.078;13.740;2022-08-19T15:25:16;26.90;49.00
14604;DHT22;7388;51.078;13.740;2022-08-19T15:27:43;26.90;49.30
14604;DHT22;7388;51.078;13.740;2022-08-19T15:30:10;26.80;49.20
14604;DHT22;7388;51.078;13.740;2022-08-19T15:32:38;26.90;48.90
14604;DHT22;7388;51.078;13.740;2022-08-19T15:35:05;26.80;49.00
14604;DHT22;7388;51.078;13.740;2022-08-19T15:37:31;26.80;49.00
14604;DHT22;7388;51.078;13.740;2022-08-19T15:39:57;26.80;48.90
14604;DHT22;7388;51.078;13.740;2022-08-19T15:42:23;26.80;48.80
14604;DHT22;7388;51.078;13.740;2022-08-19T15:44:51;26.80;48.90
14604;DHT22;7388;51.078;13.740;2022-08-19T15:47:17;26.80;48.80